Observation data for Lamesa on 10/14/2019      Previous  Date       Current Mesonet Observations  Soil Data  Daily Summary Page  Observations in Plain Language
KLES 140500Z 19006KT 17/08 A30 RMK A01 T01720075  RH  054%=      5-min Rain = 0
KLES 140505Z 20006KT 17/07 A30 RMK A01 T01710074  RH  054%=      5-min Rain = 0
KLES 140510Z 20006KT 17/07 A30 RMK A01 T01710074  RH  054%=      5-min Rain = 0
KLES 140515Z 19005KT 17/08 A30 RMK A01 T01720075  RH  054%=      5-min Rain = 0
KLES 140520Z 19005KT 17/08 A30 RMK A01 T01720076  RH  055%=      5-min Rain = 0
KLES 140525Z 18005KT 17/08 A30 RMK A01 T01710076  RH  055%=      5-min Rain = 0
KLES 140530Z 19005KT 17/08 A30 RMK A01 T01710075  RH  055%=      5-min Rain = 0
KLES 140535Z 19005KT 17/08 A30 RMK A01 T01710077  RH  055%=      5-min Rain = 0
KLES 140540Z 19005KT 17/08 A30 RMK A01 T01690077  RH  056%=      5-min Rain = 0
KLES 140545Z 19005KT 17/08 A2999 RMK A01 T01680078  RH  057%=      5-min Rain = 0
KLES 140550Z 19005KT 17/08 A2999 RMK A01 T01680076  RH  056%=      5-min Rain = 0
KLES 140555Z 20005KT 17/08 A2999 RMK A01 T01670076  RH  057%=      5-min Rain = 0
KLES 140600Z 21005KT 17/08 A2999 RMK A01 T01670075  RH  056%=      5-min Rain = 0
KLES 140605Z 21005KT 17/08 A2999 RMK A01 T01670076  RH  056%=      5-min Rain = 0
KLES 140610Z 21005KT 17/07 A2999 RMK A01 T01720074  RH  054%=      5-min Rain = 0
KLES 140615Z 21005KT 18/07 A2999 RMK A01 T01770074  RH  052%=      5-min Rain = 0
KLES 140620Z 21005KT 18/07 A2999 RMK A01 T01800074  RH  051%=      5-min Rain = 0
KLES 140625Z 21006KT 18/07 A2999 RMK A01 T01840072  RH  049%=      5-min Rain = 0
KLES 140630Z 21008KT 19/07 A2999 RMK A01 T01900071  RH  047%=      5-min Rain = 0
KLES 140635Z 21008KT 19/07 A2999 RMK A01 T01920071  RH  047%=      5-min Rain = 0
KLES 140640Z 22008KT 19/07 A2999 RMK A01 T01930072  RH  047%=      5-min Rain = 0
KLES 140645Z 22008KT 19/07 A2999 RMK A01 T01920073  RH  047%=      5-min Rain = 0
KLES 140650Z 22009KT 19/07 A2999 RMK A01 T01920073  RH  047%=      5-min Rain = 0
KLES 140655Z 22009KT 19/07 A2998 RMK A01 T01920074  RH  048%=      5-min Rain = 0
KLES 140700Z 22008KT 19/07 A2999 RMK A01 T01910074  RH  048%=      5-min Rain = 0
KLES 140705Z 22008KT 19/07 A2999 RMK A01 T01900074  RH  048%=      5-min Rain = 0
KLES 140710Z 22008KT 19/07 A2999 RMK A01 T01890074  RH  048%=      5-min Rain = 0
KLES 140715Z 22009KT 19/07 A2999 RMK A01 T01890074  RH  048%=      5-min Rain = 0
KLES 140720Z 22008KT 19/07 A2999 RMK A01 T01880074  RH  049%=      5-min Rain = 0
KLES 140725Z 22007KT 19/08 A2999 RMK A01 T01870075  RH  049%=      5-min Rain = 0
KLES 140730Z 22007KT 19/08 A2999 RMK A01 T01860075  RH  050%=      5-min Rain = 0
KLES 140735Z 22006KT 18/08 A2999 RMK A01 T01840076  RH  051%=      5-min Rain = 0
KLES 140740Z 21005KT 18/08 A2999 RMK A01 T01820077  RH  052%=      5-min Rain = 0
KLES 140745Z 22005KT 18/08 A2999 RMK A01 T01800077  RH  052%=      5-min Rain = 0
KLES 140750Z 21005KT 18/08 A2999 RMK A01 T01790077  RH  053%=      5-min Rain = 0
KLES 140755Z 21005KT 18/08 A2999 RMK A01 T01770078  RH  054%=      5-min Rain = 0
KLES 140800Z 21005KT 18/08 A2999 RMK A01 T01750079  RH  055%=      5-min Rain = 0
KLES 140805Z 21004KT 17/08 A2999 RMK A01 T01730080  RH  056%=      5-min Rain = 0
KLES 140810Z 21004KT 17/08 A2998 RMK A01 T01720080  RH  056%=      5-min Rain = 0
KLES 140815Z 20004KT 17/08 A2998 RMK A01 T01700082  RH  058%=      5-min Rain = 0
KLES 140820Z 21005KT 17/08 A2998 RMK A01 T01680083  RH  059%=      5-min Rain = 0
KLES 140825Z 22006KT 17/08 A2998 RMK A01 T01670082  RH  059%=      5-min Rain = 0
KLES 140830Z 22006KT 17/08 A2998 RMK A01 T01680082  RH  059%=      5-min Rain = 0
KLES 140835Z 22006KT 17/08 A2998 RMK A01 T01680081  RH  058%=      5-min Rain = 0
KLES 140840Z 23006KT 17/08 A2998 RMK A01 T01690079  RH  057%=      5-min Rain = 0
KLES 140845Z 24006KT 17/08 A2998 RMK A01 T01700077  RH  056%=      5-min Rain = 0
KLES 140850Z 24006KT 17/08 A2998 RMK A01 T01710077  RH  055%=      5-min Rain = 0
KLES 140855Z 24006KT 17/08 A2998 RMK A01 T01700077  RH  056%=      5-min Rain = 0
KLES 140900Z 24005KT 17/08 A2997 RMK A01 T01680077  RH  056%=      5-min Rain = 0
KLES 140905Z 24005KT 17/08 A2997 RMK A01 T01670079  RH  058%=      5-min Rain = 0
KLES 140910Z 24005KT 17/08 A2997 RMK A01 T01660078  RH  058%=      5-min Rain = 0
KLES 140915Z 24004KT 17/08 A2997 RMK A01 T01660077  RH  057%=      5-min Rain = 0
KLES 140920Z 24005KT 17/08 A2997 RMK A01 T01660080  RH  058%=      5-min Rain = 0
KLES 140925Z 24004KT 16/08 A2997 RMK A01 T01630083  RH  061%=      5-min Rain = 0
KLES 140930Z 25004KT 16/08 A2997 RMK A01 T01620080  RH  060%=      5-min Rain = 0
KLES 140935Z 25004KT 16/08 A2997 RMK A01 T01640077  RH  058%=      5-min Rain = 0
KLES 140940Z 23003KT 17/08 A2996 RMK A01 T01650079  RH  058%=      5-min Rain = 0
KLES 140945Z 22003KT 16/09 A2996 RMK A01 T01630085  RH  062%=      5-min Rain = 0
KLES 140950Z 20004KT 16/09 A2996 RMK A01 T01580087  RH  064%=      5-min Rain = 0
KLES 140955Z 17008KT 16/08 A2997 RMK A01 T01550082  RH  063%=      5-min Rain = 0
KLES 141000Z 19006KT 16/08 A2997 RMK A01 T01580080  RH  061%=      5-min Rain = 0
KLES 141005Z 18006KT 16/08 A2997 RMK A01 T01590083  RH  063%=      5-min Rain = 0
KLES 141010Z 21004KT 16/08 A2997 RMK A01 T01580083  RH  063%=      5-min Rain = 0
KLES 141015Z 25005KT 16/08 A2997 RMK A01 T01580081  RH  062%=      5-min Rain = 0
KLES 141020Z 21003KT 16/08 A2997 RMK A01 T01600082  RH  061%=      5-min Rain = 0
KLES 141025Z 17003KT 16/09 A2997 RMK A01 T01570086  RH  064%=      5-min Rain = 0
KLES 141030Z 19003KT 16/08 A2997 RMK A01 T01550083  RH  064%=      5-min Rain = 0
KLES 141035Z 18006KT 16/09 A2997 RMK A01 T01550085  RH  065%=      5-min Rain = 0
KLES 141040Z 18006KT 15/09 A2997 RMK A01 T01530085  RH  066%=      5-min Rain = 0
KLES 141045Z 18006KT 15/09 A2998 RMK A01 T01540085  RH  065%=      5-min Rain = 0
KLES 141050Z 18006KT 15/08 A2998 RMK A01 T01540083  RH  064%=      5-min Rain = 0
KLES 141055Z 18005KT 16/08 A2998 RMK A01 T01550082  RH  064%=      5-min Rain = 0
KLES 141100Z 18005KT 16/08 A2998 RMK A01 T01550081  RH  063%=      5-min Rain = 0
KLES 141105Z 17005KT 16/08 A2998 RMK A01 T01550082  RH  063%=      5-min Rain = 0
KLES 141110Z 17005KT 16/08 A2998 RMK A01 T01550082  RH  064%=      5-min Rain = 0
KLES 141115Z 18004KT 15/08 A2998 RMK A01 T01540082  RH  064%=      5-min Rain = 0
KLES 141120Z 18004KT 15/08 A2998 RMK A01 T01530083  RH  065%=      5-min Rain = 0
KLES 141125Z 19002KT 15/08 A2999 RMK A01 T01530083  RH  065%=      5-min Rain = 0
KLES 141130Z 18003KT 15/08 A2999 RMK A01 T01530083  RH  065%=      5-min Rain = 0
KLES 141135Z 18005KT 15/08 A2999 RMK A01 T01530084  RH  065%=      5-min Rain = 0
KLES 141140Z 19004KT 15/09 A2999 RMK A01 T01530085  RH  066%=      5-min Rain = 0
KLES 141145Z 21004KT 15/09 A2999 RMK A01 T01530085  RH  065%=      5-min Rain = 0
KLES 141150Z 20005KT 15/09 A2999 RMK A01 T01540086  RH  066%=      5-min Rain = 0
KLES 141155Z 20004KT 15/09 A30 RMK A01 T01520087  RH  067%=      5-min Rain = 0
KLES 141200Z 18005KT 15/09 A2999 RMK A01 T01500089  RH  069%=      5-min Rain = 0
KLES 141205Z 18006KT 15/09 A2999 RMK A01 T01480087  RH  069%=      5-min Rain = 0
KLES 141210Z 18005KT 15/09 A2999 RMK A01 T01470086  RH  069%=      5-min Rain = 0
KLES 141215Z 17004KT 15/09 A2999 RMK A01 T01480085  RH  068%=      5-min Rain = 0
KLES 141220Z 17004KT 15/09 A2999 RMK A01 T01470085  RH  068%=      5-min Rain = 0
KLES 141225Z 23002KT 15/09 A30 RMK A01 T01470085  RH  068%=      5-min Rain = 0
KLES 141230Z 23003KT 15/08 A30 RMK A01 T01490083  RH  066%=      5-min Rain = 0
KLES 141235Z 19004KT 15/09 A30 RMK A01 T01500085  RH  067%=      5-min Rain = 0
KLES 141240Z 21004KT 15/09 A30 RMK A01 T01490086  RH  068%=      5-min Rain = 0
KLES 141245Z 21005KT 15/09 A30 RMK A01 T01500087  RH  068%=      5-min Rain = 0
KLES 141250Z 20006KT 15/09 A30 RMK A01 T01490090  RH  070%=      5-min Rain = 0
KLES 141255Z 21004KT 15/09 A3001 RMK A01 T01490090  RH  070%=      5-min Rain = 0
KLES 141300Z 21005KT 15/09 A3001 RMK A01 T01490088  RH  069%=      5-min Rain = 0
KLES 141305Z 22004KT 15/09 A3001 RMK A01 T01490086  RH  068%=      5-min Rain = 0
KLES 141310Z 22004KT 15/09 A3001 RMK A01 T01500085  RH  067%=      5-min Rain = 0
KLES 141315Z 20005KT 15/09 A3001 RMK A01 T01510086  RH  067%=      5-min Rain = 0
KLES 141320Z 22002KT 15/09 A3001 RMK A01 T01510088  RH  068%=      5-min Rain = 0
KLES 141325Z 21003KT 15/09 A3001 RMK A01 T01500087  RH  068%=      5-min Rain = 0
KLES 141330Z 21003KT 15/09 A3001 RMK A01 T01510088  RH  068%=      5-min Rain = 0
KLES 141335Z 22002KT 15/09 A3001 RMK A01 T01500089  RH  069%=      5-min Rain = 0
KLES 141340Z 21002KT 15/09 A3002 RMK A01 T01510089  RH  069%=      5-min Rain = 0
KLES 141345Z 20001KT 15/09 A3002 RMK A01 T01520092  RH  069%=      5-min Rain = 0
KLES 141350Z 21001KT 15/10 A3002 RMK A01 T01530095  RH  070%=      5-min Rain = 0
KLES 141355Z 20002KT 15/10 A3002 RMK A01 T01540096  RH  070%=      5-min Rain = 0
KLES 141400Z 18003KT 16/10 A3002 RMK A01 T01560097  RH  070%=      5-min Rain = 0
KLES 141405Z 18003KT 16/10 A3002 RMK A01 T01570097  RH  070%=      5-min Rain = 0
KLES 141410Z 19002KT 16/10 A3002 RMK A01 T01590095  RH  068%=      5-min Rain = 0
KLES 141415Z 21001KT 16/09 A3002 RMK A01 T01610094  RH  066%=      5-min Rain = 0
KLES 141420Z 19002KT 16/09 A3002 RMK A01 T01630094  RH  065%=      5-min Rain = 0
KLES 141425Z 18002KT 17/10 A3002 RMK A01 T01650095  RH  065%=      5-min Rain = 0
KLES 141430Z 19002KT 17/10 A3003 RMK A01 T01660095  RH  065%=      5-min Rain = 0
KLES 141435Z 19003KT 17/10 A3003 RMK A01 T01680097  RH  065%=      5-min Rain = 0
KLES 141440Z 19003KT 17/10 A3003 RMK A01 T01700100  RH  065%=      5-min Rain = 0
KLES 141445Z 19002KT 17/10 A3003 RMK A01 T01730101  RH  065%=      5-min Rain = 0
KLES 141450Z 19003KT 18/10 A3004 RMK A01 T01750102  RH  064%=      5-min Rain = 0
KLES 141455Z 21003KT 18/10 A3004 RMK A01 T01780102  RH  063%=      5-min Rain = 0
KLES 141500Z 21003KT 18/10 A3004 RMK A01 T01800102  RH  062%=      5-min Rain = 0
KLES 141505Z 22003KT 18/10 A3004 RMK A01 T01820103  RH  062%=      5-min Rain = 0
KLES 141510Z 23004KT 19/10 A3004 RMK A01 T01850104  RH  061%=      5-min Rain = 0
KLES 141515Z 22005KT 19/11 A3004 RMK A01 T01870105  RH  061%=      5-min Rain = 0
KLES 141520Z 23006KT 19/11 A3004 RMK A01 T01890108  RH  061%=      5-min Rain = 0
KLES 141525Z 23006KT 19/11 A3004 RMK A01 T01920111  RH  062%=      5-min Rain = 0
KLES 141530Z 22007KT 19/11 A3004 RMK A01 T01940111  RH  061%=      5-min Rain = 0
KLES 141535Z 23007KT 20/11 A3004 RMK A01 T01970112  RH  060%=      5-min Rain = 0
KLES 141540Z 23009KT 20/11 A3004 RMK A01 T01980113  RH  060%=      5-min Rain = 0
KLES 141545Z 23007KT 20/12 A3004 RMK A01 T02000116  RH  060%=      5-min Rain = 0
KLES 141550Z 23008KT 21/12 A3004 RMK A01 T02050118  RH  059%=      5-min Rain = 0
KLES 141555Z 23008KT 21/12 A3004 RMK A01 T02060117  RH  059%=      5-min Rain = 0
KLES 141600Z 23010KT 21/12 A3004 RMK A01 T02060118  RH  059%=      5-min Rain = 0
KLES 141605Z 23009KT 21/12 A3004 RMK A01 T02070120  RH  060%=      5-min Rain = 0
KLES 141610Z 22009KT 21/12 A3004 RMK A01 T02090121  RH  059%=      5-min Rain = 0
KLES 141615Z 22010KT 21/12 A3004 RMK A01 T02140123  RH  058%=      5-min Rain = 0
KLES 141620Z 22010KT 21/12 A3004 RMK A01 T02140123  RH  058%=      5-min Rain = 0
KLES 141625Z 23010KT 21/12 A3004 RMK A01 T02130122  RH  058%=      5-min Rain = 0
KLES 141630Z 23009KT 21/12 A3004 RMK A01 T02130123  RH  058%=      5-min Rain = 0
KLES 141635Z 23008KT 22/12 A3003 RMK A01 T02150124  RH  059%=      5-min Rain = 0
KLES 141640Z 23009KT 22/13 A3003 RMK A01 T02160125  RH  059%=      5-min Rain = 0
KLES 141645Z 23009KT 22/13 A3003 RMK A01 T02180128  RH  059%=      5-min Rain = 0
KLES 141650Z 24009KT 22/13 A3004 RMK A01 T02180128  RH  059%=      5-min Rain = 0
KLES 141655Z 24010KT 22/13 A3004 RMK A01 T02200128  RH  058%=      5-min Rain = 0
KLES 141700Z 23010KT 22/13 A3003 RMK A01 T02220128  RH  057%=      5-min Rain = 0
KLES 141705Z 23009KT 23/13 A3003 RMK A01 T02260132  RH  058%=      5-min Rain = 0
KLES 141710Z 23011KT 23/13 A3003 RMK A01 T02290131  RH  056%=      5-min Rain = 0
KLES 141715Z 23010G15KT 23/13 A3003 RMK A01 T02320133  RH  056%=      5-min Rain = 0
KLES 141720Z 24011G17KT 24/13 A3003 RMK A01 T02360134  RH  055%=      5-min Rain = 0
KLES 141725Z 24014KT 24/13 A3002 RMK A01 T02360132  RH  054%=      5-min Rain = 0
KLES 141730Z 24013G18KT 24/13 A3002 RMK A01 T02380133  RH  054%=      5-min Rain = 0
KLES 141735Z 24013KT 24/13 A3002 RMK A01 T02410133  RH  053%=      5-min Rain = 0
KLES 141740Z 24013KT 24/14 A3002 RMK A01 T02430135  RH  053%=      5-min Rain = 0
KLES 141745Z 23014KT 24/14 A3002 RMK A01 T02430135  RH  053%=      5-min Rain = 0
KLES 141750Z 23012KT 25/14 A3002 RMK A01 T02470136  RH  052%=      5-min Rain = 0
KLES 141755Z 23012KT 25/14 A3001 RMK A01 T02530137  RH  051%=      5-min Rain = 0
KLES 141800Z 23013KT 25/14 A3001 RMK A01 T02540138  RH  051%=      5-min Rain = 0
KLES 141805Z 23013KT 25/14 A3001 RMK A01 T02510138  RH  051%=      5-min Rain = 0
KLES 141810Z 23013KT 26/14 A30 RMK A01 T02560137  RH  050%=      5-min Rain = 0
KLES 141815Z 24012KT 26/14 A30 RMK A01 T02570137  RH  049%=      5-min Rain = 0
KLES 141820Z 24013G18KT 26/14 A2999 RMK A01 T02610135  RH  048%=      5-min Rain = 0
KLES 141825Z 24011G17KT 27/14 A2999 RMK A01 T02670137  RH  047%=      5-min Rain = 0
KLES 141830Z 23012KT 27/14 A2999 RMK A01 T02680137  RH  046%=      5-min Rain = 0
KLES 141835Z 25013G18KT 27/13 A2999 RMK A01 T02680133  RH  045%=      5-min Rain = 0
KLES 141840Z 23012G17KT 27/14 A2998 RMK A01 T02670136  RH  046%=      5-min Rain = 0
KLES 141845Z 21012G18KT 27/14 A2998 RMK A01 T02690137  RH  046%=      5-min Rain = 0
KLES 141850Z 22012G18KT 27/14 A2998 RMK A01 T02710138  RH  046%=      5-min Rain = 0
KLES 141855Z 22013KT 27/14 A2998 RMK A01 T02670138  RH  047%=      5-min Rain = 0
KLES 141900Z 22014G20KT 27/14 A2997 RMK A01 T02650137  RH  047%=      5-min Rain = 0
KLES 141905Z 23013G18KT 26/14 A2997 RMK A01 T02620136  RH  048%=      5-min Rain = 0
KLES 141910Z 21011G18KT 27/14 A2997 RMK A01 T02680139  RH  047%=      5-min Rain = 0
KLES 141915Z 21014KT 27/14 A2997 RMK A01 T02700139  RH  047%=      5-min Rain = 0
KLES 141920Z 23011KT 27/14 A2996 RMK A01 T02740138  RH  045%=      5-min Rain = 0
KLES 141925Z 21010G15KT 27/14 A2996 RMK A01 T02720139  RH  046%=      5-min Rain = 0
KLES 141930Z 19011KT 27/14 A2996 RMK A01 T02680140  RH  047%=      5-min Rain = 0
KLES 141935Z 21010G15KT 27/14 A2996 RMK A01 T02690138  RH  047%=      5-min Rain = 0
KLES 141940Z 22009G14KT 27/14 A2995 RMK A01 T02700139  RH  046%=      5-min Rain = 0
KLES 141945Z 21013G20KT 27/14 A2995 RMK A01 T02710137  RH  046%=      5-min Rain = 0
KLES 141950Z 22008G15KT 27/14 A2995 RMK A01 T02670136  RH  046%=      5-min Rain = 0
KLES 141955Z 20007G12KT 27/14 A2994 RMK A01 T02650136  RH  047%=      5-min Rain = 0
KLES 142000Z 21010KT 27/14 A2994 RMK A01 T02690139  RH  047%=      5-min Rain = 0
KLES 142005Z 21008KT 27/14 A2994 RMK A01 T02710138  RH  046%=      5-min Rain = 0
KLES 142010Z 21010G17KT 27/14 A2994 RMK A01 T02710135  RH  045%=      5-min Rain = 0
KLES 142015Z 21010G15KT 27/13 A2994 RMK A01 T02740133  RH  043%=      5-min Rain = 0
KLES 142020Z 21011KT 28/14 A2994 RMK A01 T02760136  RH  044%=      5-min Rain = 0
KLES 142025Z 20009G16KT 27/13 A2994 RMK A01 T02700133  RH  045%=      5-min Rain = 0
KLES 142030Z 21010KT 27/14 A2994 RMK A01 T02670136  RH  046%=      5-min Rain = 0
KLES 142035Z 20009G14KT 27/14 A2993 RMK A01 T02680135  RH  046%=      5-min Rain = 0
KLES 142040Z 22010KT 27/13 A2993 RMK A01 T02710132  RH  044%=      5-min Rain = 0
KLES 142045Z 21008KT 28/13 A2993 RMK A01 T02760132  RH  043%=      5-min Rain = 0
KLES 142050Z 20010KT 28/13 A2993 RMK A01 T02790132  RH  042%=      5-min Rain = 0
KLES 142055Z 20008G15KT 28/13 A2993 RMK A01 T02760129  RH  042%=      5-min Rain = 0
KLES 142100Z 19010G15KT 28/13 A2993 RMK A01 T02770131  RH  042%=      5-min Rain = 0
KLES 142105Z 19011KT 28/13 A2993 RMK A01 T02780131  RH  042%=      5-min Rain = 0
KLES 142110Z 19011G16KT 28/13 A2993 RMK A01 T02750129  RH  042%=      5-min Rain = 0
KLES 142115Z 19011KT 28/13 A2993 RMK A01 T02750128  RH  042%=      5-min Rain = 0
KLES 142120Z 19013G18KT 28/13 A2993 RMK A01 T02770127  RH  041%=      5-min Rain = 0
KLES 142125Z 21013G18KT 28/13 A2993 RMK A01 T02750130  RH  042%=      5-min Rain = 0
KLES 142130Z 20010KT 28/13 A2993 RMK A01 T02760133  RH  043%=      5-min Rain = 0
KLES 142135Z 19012KT 28/13 A2993 RMK A01 T02760134  RH  044%=      5-min Rain = 0
KLES 142140Z 20011KT 27/13 A2993 RMK A01 T02740132  RH  043%=      5-min Rain = 0
KLES 142145Z 20011KT 27/14 A2993 RMK A01 T02740135  RH  044%=      5-min Rain = 0
KLES 142150Z 20011KT 27/13 A2992 RMK A01 T02730134  RH  044%=      5-min Rain = 0
KLES 142155Z 19013G18KT 28/13 A2992 RMK A01 T02750134  RH  044%=      5-min Rain = 0
KLES 142200Z 19010G15KT 27/14 A2992 RMK A01 T02740136  RH  045%=      5-min Rain = 0
KLES 142205Z 19010KT 28/13 A2992 RMK A01 T02770134  RH  043%=      5-min Rain = 0
KLES 142210Z 21010KT 28/14 A2992 RMK A01 T02760135  RH  044%=      5-min Rain = 0
KLES 142215Z 20009KT 27/13 A2992 RMK A01 T02700134  RH  045%=      5-min Rain = 0
KLES 142220Z 20007KT 27/14 A2992 RMK A01 T02650136  RH  047%=      5-min Rain = 0
KLES 142225Z 20010KT 26/14 A2992 RMK A01 T02630137  RH  048%=      5-min Rain = 0
KLES 142230Z 18011KT 26/14 A2992 RMK A01 T02620136  RH  048%=      5-min Rain = 0
KLES 142235Z 18011KT 27/14 A2992 RMK A01 T02660135  RH  046%=      5-min Rain = 0
KLES 142240Z 19012G17KT 27/14 A2992 RMK A01 T02690141  RH  047%=      5-min Rain = 0
KLES 142245Z 19012KT 27/14 A2992 RMK A01 T02650143  RH  049%=      5-min Rain = 0
KLES 142250Z 21012G17KT 26/15 A2992 RMK A01 T02620146  RH  051%=      5-min Rain = 0
KLES 142255Z 20012KT 26/15 A2992 RMK A01 T02590148  RH  053%=      5-min Rain = 0
KLES 142300Z 21010KT 26/15 A2992 RMK A01 T02590149  RH  053%=      5-min Rain = 0
KLES 142305Z 21013KT 26/15 A2992 RMK A01 T02560148  RH  053%=      5-min Rain = 0
KLES 142310Z 21012KT 25/15 A2992 RMK A01 T02530148  RH  055%=      5-min Rain = 0
KLES 142315Z 20011KT 25/15 A2992 RMK A01 T02520148  RH  055%=      5-min Rain = 0
KLES 142320Z 20011KT 26/15 A2992 RMK A01 T02560149  RH  054%=      5-min Rain = 0
KLES 142325Z 21011KT 26/15 A2992 RMK A01 T02570149  RH  053%=      5-min Rain = 0
KLES 142330Z 21009KT 26/15 A2992 RMK A01 T02570149  RH  054%=      5-min Rain = 0
KLES 142335Z 22012KT 26/14 A2992 RMK A01 T02560144  RH  052%=      5-min Rain = 0
KLES 142340Z 22011G16KT 25/14 A2992 RMK A01 T02540143  RH  052%=      5-min Rain = 0
KLES 142345Z 22012KT 25/14 A2992 RMK A01 T02530142  RH  052%=      5-min Rain = 0
KLES 142350Z 22010G16KT 25/14 A2992 RMK A01 T02510143  RH  053%=      5-min Rain = 0
KLES 142355Z 22012G17KT 25/14 A2992 RMK A01 T02500141  RH  053%=      5-min Rain = 0
KLES 150000Z 22010KT 25/14 A2992 RMK A01 T02480143  RH  054%=      5-min Rain = 0
KLES 150005Z 22011KT 25/14 A2992 RMK A01 T02460142  RH  055%=      5-min Rain = 0
KLES 150010Z 22009KT 24/14 A2992 RMK A01 T02430142  RH  055%=      5-min Rain = 0
KLES 150015Z 22008KT 24/14 A2992 RMK A01 T02400143  RH  057%=      5-min Rain = 0
KLES 150020Z 21008KT 24/14 A2992 RMK A01 T02380142  RH  057%=      5-min Rain = 0
KLES 150025Z 21008KT 24/14 A2992 RMK A01 T02370143  RH  058%=      5-min Rain = 0
KLES 150030Z 20008KT 23/14 A2993 RMK A01 T02340144  RH  059%=      5-min Rain = 0
KLES 150035Z 20007KT 23/15 A2993 RMK A01 T02300145  RH  061%=      5-min Rain = 0
KLES 150040Z 20007KT 23/15 A2993 RMK A01 T02270145  RH  063%=      5-min Rain = 0
KLES 150045Z 20006KT 22/15 A2993 RMK A01 T02230146  RH  064%=      5-min Rain = 0
KLES 150050Z 20006KT 22/15 A2993 RMK A01 T02190146  RH  066%=      5-min Rain = 0
KLES 150055Z 19007KT 22/15 A2993 RMK A01 T02160146  RH  067%=      5-min Rain = 0
KLES 150100Z 19007KT 22/15 A2994 RMK A01 T02150145  RH  067%=      5-min Rain = 0
KLES 150105Z 19007KT 22/15 A2994 RMK A01 T02160146  RH  067%=      5-min Rain = 0
KLES 150110Z 19007KT 22/15 A2994 RMK A01 T02160147  RH  068%=      5-min Rain = 0
KLES 150115Z 19007KT 22/15 A2994 RMK A01 T02160148  RH  068%=      5-min Rain = 0
KLES 150120Z 19008KT 22/15 A2994 RMK A01 T02160149  RH  068%=      5-min Rain = 0
KLES 150125Z 19007KT 22/15 A2995 RMK A01 T02160149  RH  069%=      5-min Rain = 0
KLES 150130Z 18006KT 22/15 A2995 RMK A01 T02150150  RH  069%=      5-min Rain = 0
KLES 150135Z 18006KT 21/15 A2995 RMK A01 T02120149  RH  070%=      5-min Rain = 0
KLES 150140Z 19006KT 21/15 A2995 RMK A01 T02110149  RH  071%=      5-min Rain = 0
KLES 150145Z 19006KT 21/15 A2995 RMK A01 T02090149  RH  072%=      5-min Rain = 0
KLES 150150Z 18006KT 21/15 A2995 RMK A01 T02070149  RH  072%=      5-min Rain = 0
KLES 150155Z 18006KT 21/15 A2995 RMK A01 T02060149  RH  073%=      5-min Rain = 0
KLES 150200Z 18006KT 21/15 A2995 RMK A01 T02050149  RH  073%=      5-min Rain = 0
KLES 150205Z 18006KT 20/15 A2995 RMK A01 T02040149  RH  074%=      5-min Rain = 0
KLES 150210Z 19006KT 20/15 A2995 RMK A01 T02030149  RH  074%=      5-min Rain = 0
KLES 150215Z 18007KT 20/15 A2995 RMK A01 T02030149  RH  074%=      5-min Rain = 0
KLES 150220Z 19005KT 20/15 A2996 RMK A01 T02020149  RH  075%=      5-min Rain = 0
KLES 150225Z 18005KT 20/15 A2996 RMK A01 T01970148  RH  077%=      5-min Rain = 0
KLES 150230Z 18006KT 20/15 A2996 RMK A01 T01960149  RH  077%=      5-min Rain = 0
KLES 150235Z 19007KT 20/15 A2996 RMK A01 T01980149  RH  077%=      5-min Rain = 0
KLES 150240Z 19007KT 20/15 A2996 RMK A01 T02000149  RH  076%=      5-min Rain = 0
KLES 150245Z 18007KT 20/15 A2996 RMK A01 T02000149  RH  076%=      5-min Rain = 0
KLES 150250Z 18007KT 20/15 A2996 RMK A01 T02000149  RH  076%=      5-min Rain = 0
KLES 150255Z 19008KT 20/15 A2996 RMK A01 T02000149  RH  076%=      5-min Rain = 0
KLES 150300Z 18008KT 20/15 A2996 RMK A01 T02010149  RH  075%=      5-min Rain = 0
KLES 150305Z 20008KT 20/15 A2997 RMK A01 T02010149  RH  075%=      5-min Rain = 0
KLES 150310Z 20008KT 20/15 A2997 RMK A01 T02000149  RH  076%=      5-min Rain = 0
KLES 150315Z 20007KT 20/15 A2997 RMK A01 T01980148  RH  076%=      5-min Rain = 0
KLES 150320Z 20007KT 20/15 A2997 RMK A01 T01960148  RH  077%=      5-min Rain = 0
KLES 150325Z 20006KT 19/15 A2997 RMK A01 T01940148  RH  078%=      5-min Rain = 0
KLES 150330Z 20006KT 19/15 A2997 RMK A01 T01930147  RH  078%=      5-min Rain = 0
KLES 150335Z 20006KT 19/15 A2997 RMK A01 T01900147  RH  079%=      5-min Rain = 0
KLES 150340Z 20006KT 19/15 A2997 RMK A01 T01880146  RH  080%=      5-min Rain = 0
KLES 150345Z 20006KT 19/15 A2997 RMK A01 T01860146  RH  081%=      5-min Rain = 0
KLES 150350Z 20006KT 19/15 A2998 RMK A01 T01850146  RH  082%=      5-min Rain = 0
KLES 150355Z 20006KT 18/15 A2998 RMK A01 T01840146  RH  082%=      5-min Rain = 0
KLES 150400Z 20006KT 18/15 A2998 RMK A01 T01830145  RH  082%=      5-min Rain = 0
KLES 150405Z 20005KT 18/14 A2998 RMK A01 T01820144  RH  082%=      5-min Rain = 0
KLES 150410Z 20006KT 18/14 A2998 RMK A01 T01800144  RH  083%=      5-min Rain = 0
KLES 150415Z 20005KT 18/14 A2998 RMK A01 T01790144  RH  084%=      5-min Rain = 0
KLES 150420Z 21004KT 18/14 A2998 RMK A01 T01780144  RH  084%=      5-min Rain = 0
KLES 150425Z 20004KT 18/14 A2998 RMK A01 T01780144  RH  084%=      5-min Rain = 0
KLES 150430Z 20004KT 18/14 A2997 RMK A01 T01770143  RH  084%=      5-min Rain = 0
KLES 150435Z 19005KT 18/14 A2997 RMK A01 T01760144  RH  085%=      5-min Rain = 0
KLES 150440Z 20005KT 18/15 A2997 RMK A01 T01770145  RH  085%=      5-min Rain = 0
KLES 150445Z 20005KT 18/15 A2998 RMK A01 T01790146  RH  085%=      5-min Rain = 0
KLES 150450Z 20006KT 18/15 A2997 RMK A01 T01810147  RH  085%=      5-min Rain = 0
KLES 150455Z 20006KT 18/15 A2997 RMK A01 T01820148  RH  084%=      5-min Rain = 0

Page generated in 0.0225 seconds.